createdAt,value
2019-01-10T00:02:05.946Z,4.40
2019-01-10T00:04:36.152Z,3.97
2019-01-10T00:07:13.525Z,4.20
2019-01-10T00:09:46.322Z,5.33
2019-01-10T00:12:16.765Z,4.20
2019-01-10T00:15:02.658Z,4.47
2019-01-10T00:17:33.443Z,4.20
2019-01-10T00:20:18.735Z,4.60
2019-01-10T00:22:50.695Z,4.00
2019-01-10T00:25:30.944Z,4.43
2019-01-10T00:28:13.410Z,4.22
2019-01-10T00:30:44.152Z,3.87
2019-01-10T00:33:18.255Z,4.00
2019-01-10T00:36:17.688Z,4.40
2019-01-10T00:39:08.960Z,3.77
2019-01-10T00:41:42.674Z,4.60
2019-01-10T00:47:14.808Z,4.50
2019-01-10T00:49:50.947Z,4.70
2019-01-10T00:52:35.364Z,4.17
2019-01-10T00:55:08.238Z,3.83
2019-01-10T00:58:10.036Z,4.30
2019-01-10T01:00:48.825Z,4.67
2019-01-10T01:03:25.518Z,4.78
2019-01-10T01:06:15.713Z,3.90
2019-01-10T01:08:53.680Z,3.97
2019-01-10T01:11:29.893Z,4.20
2019-01-10T01:14:11.591Z,3.60
2019-01-10T01:16:41.905Z,3.70
2019-01-10T01:19:12.153Z,3.13
2019-01-10T01:21:43.192Z,3.50
2019-01-10T01:24:18.903Z,3.50
2019-01-10T01:26:52.039Z,3.60
2019-01-10T01:29:23.622Z,4.10
2019-01-10T01:31:57.376Z,3.70
2019-01-10T01:34:32.823Z,3.42
2019-01-10T01:37:33.732Z,3.85
2019-01-10T01:43:18.063Z,3.30
2019-01-10T01:46:15.106Z,3.45
2019-01-10T01:48:50.460Z,2.90
2019-01-10T01:51:38.212Z,3.60
2019-01-10T01:54:18.865Z,3.53
2019-01-10T01:57:05.911Z,3.13
2019-01-10T01:59:38.937Z,4.00
2019-01-10T02:02:21.005Z,3.63
2019-01-10T02:05:01.449Z,4.03
2019-01-10T02:07:41.852Z,3.57
2019-01-10T02:10:18.039Z,3.33
2019-01-10T02:12:56.218Z,3.40
2019-01-10T02:15:31.331Z,4.10
2019-01-10T02:18:13.859Z,4.30
2019-01-10T02:20:45.948Z,3.42
2019-01-10T02:23:20.096Z,3.90
2019-01-10T02:26:13.306Z,3.70
2019-01-10T02:28:44.626Z,3.50
2019-01-10T02:31:15.245Z,3.70
2019-01-10T02:33:45.375Z,4.10
2019-01-10T02:36:15.596Z,3.70
2019-01-10T02:38:49.704Z,3.50
2019-01-10T02:41:21.129Z,3.97
2019-01-10T02:43:51.780Z,3.80
2019-01-10T02:46:32.883Z,4.13
2019-01-10T02:49:04.779Z,4.30
2019-01-10T02:51:44.505Z,4.50
2019-01-10T02:54:29.772Z,4.40
2019-01-10T02:57:08.183Z,4.43
2019-01-10T03:05:18.305Z,4.97
2019-01-10T03:08:02.645Z,4.60
2019-01-10T03:10:34.234Z,4.90
2019-01-10T03:13:04.907Z,4.72
2019-01-10T03:15:43.575Z,5.30
2019-01-10T03:18:17.114Z,4.57
2019-01-10T03:21:01.093Z,5.40
2019-01-10T03:23:36.488Z,5.50
2019-01-10T03:26:06.866Z,5.40
2019-01-10T03:28:40.229Z,5.10
2019-01-10T03:31:27.756Z,5.33
2019-01-10T03:33:59.794Z,4.87
2019-01-10T03:36:36.916Z,5.20
2019-01-10T03:39:20.866Z,5.33
2019-01-10T03:42:02.231Z,5.53
2019-01-10T03:44:49.094Z,5.70
2019-01-10T03:48:05.722Z,5.13
2019-01-10T03:50:56.035Z,4.97
2019-01-10T03:53:28.398Z,4.50
2019-01-10T04:00:05.142Z,4.30
2019-01-10T04:02:54.418Z,5.00
2019-01-10T04:05:28.087Z,4.57
2019-01-10T04:07:58.671Z,4.87
2019-01-10T04:10:29.085Z,5.17
2019-01-10T04:12:59.375Z,4.90
2019-01-10T04:15:30.289Z,6.43
2019-01-10T04:18:05.377Z,5.47
2019-01-10T04:21:02.941Z,5.40
2019-01-10T04:23:27.995Z,5.80
2019-01-10T04:26:02.545Z,5.50
2019-01-10T04:28:34.105Z,5.90
2019-01-10T04:31:07.340Z,6.30
2019-01-10T04:33:38.674Z,5.90
2019-01-10T04:36:32.194Z,5.33
2019-01-10T04:39:08.484Z,5.17
2019-01-10T04:47:54.302Z,6.10
2019-01-10T04:50:33.059Z,7.30
2019-01-10T04:56:31.215Z,7.30
2019-01-10T05:02:45.529Z,6.08
2019-01-10T05:06:47.239Z,5.93
2019-01-10T05:09:27.484Z,6.77
2019-01-10T05:12:20.313Z,7.27
2019-01-10T05:14:55.337Z,7.40
2019-01-10T05:17:30.275Z,7.10
2019-01-10T05:21:24.671Z,6.60
2019-01-10T05:24:05.585Z,6.80
2019-01-10T05:26:58.411Z,6.97
2019-01-10T05:30:22.649Z,6.87
2019-01-10T05:33:09.896Z,6.87
2019-01-10T05:35:50.466Z,6.97
2019-01-10T05:38:58.633Z,7.50
2019-01-10T05:41:43.815Z,7.60
2019-01-10T05:44:26.240Z,7.70
2019-01-10T05:46:51.532Z,8.20
2019-01-10T05:49:36.459Z,8.60
2019-01-10T05:52:08.920Z,7.37
2019-01-10T05:54:50.557Z,7.73
2019-01-10T05:57:20.624Z,7.17
2019-01-10T05:59:50.375Z,8.83
2019-01-10T06:02:20.342Z,8.33
2019-01-10T06:04:52.519Z,9.10
2019-01-10T06:07:22.144Z,7.63
2019-01-10T06:09:52.451Z,8.50
2019-01-10T06:12:22.376Z,9.07
2019-01-10T06:14:52.607Z,9.38
2019-01-10T06:17:22.777Z,9.50
2019-01-10T06:19:52.700Z,10.20
2019-01-10T06:22:23.118Z,7.43
2019-01-10T06:24:52.977Z,8.60
2019-01-10T06:49:56.426Z,8.50
2019-01-10T06:52:26.124Z,7.47
2019-01-10T06:54:56.920Z,7.77
2019-01-10T06:57:29.267Z,7.60
2019-01-10T06:59:59.265Z,7.80
2019-01-10T07:02:29.491Z,8.03
2019-01-10T07:04:59.516Z,7.37
2019-01-10T07:07:29.203Z,8.60
2019-01-10T07:09:59.483Z,8.20
2019-01-10T07:12:29.336Z,7.47
2019-01-10T07:14:59.973Z,8.27
2019-01-10T07:17:30.263Z,7.80
2019-01-10T07:20:00.318Z,7.97
2019-01-10T07:22:30.241Z,7.20
2019-01-10T07:25:01.463Z,7.33
2019-01-10T07:27:47.701Z,8.17
2019-01-10T07:30:20.526Z,7.53
2019-01-10T07:32:50.668Z,8.40
2019-01-10T07:36:18.949Z,9.30
2019-01-10T07:39:59.203Z,8.63
2019-01-10T07:54:05.412Z,7.20
2019-01-10T07:57:38.494Z,7.80
2019-01-10T08:04:21.345Z,7.80
2019-01-10T08:13:44.119Z,7.80
2019-01-10T08:17:15.736Z,8.53
2019-01-10T08:51:11.981Z,9.00
2019-01-10T08:54:37.649Z,8.97
2019-01-10T08:57:14.060Z,12.30
2019-01-10T09:03:29.170Z,10.60
2019-01-10T09:06:51.167Z,9.87
2019-01-10T09:09:22.581Z,10.73
2019-01-10T09:15:33.723Z,10.80
2019-01-10T09:18:54.944Z,9.80
2019-01-10T09:28:20.110Z,12.27
2019-01-10T09:31:21.862Z,10.63
2019-01-10T09:38:49.496Z,11.43
2019-01-10T09:42:19.871Z,10.57
2019-01-10T09:44:39.755Z,10.23
2019-01-10T09:47:33.625Z,11.15
2019-01-10T09:50:21.613Z,10.70
2019-01-10T10:00:12.323Z,9.80
2019-01-10T10:03:17.695Z,8.10
2019-01-10T10:06:26.938Z,8.87
2019-01-10T10:09:49.016Z,10.40
2019-01-10T10:15:24.914Z,8.87
2019-01-10T10:22:08.970Z,8.50
2019-01-10T10:24:40.516Z,8.10
2019-01-10T10:27:40.170Z,9.60
2019-01-10T10:30:21.495Z,9.97
2019-01-10T10:33:02.601Z,9.70
2019-01-10T10:35:58.100Z,8.50
2019-01-10T10:38:42.774Z,8.17
2019-01-10T10:41:16.199Z,9.00
2019-01-10T10:43:59.155Z,8.63
2019-01-10T10:47:09.684Z,9.93
2019-01-10T10:50:18.776Z,9.77
2019-01-10T10:53:19.926Z,9.93
2019-01-10T11:20:08.422Z,10.47
2019-01-10T11:23:20.390Z,8.90
2019-01-10T11:26:12.474Z,9.53
2019-01-10T11:29:13.177Z,8.63
2019-01-10T11:36:48.415Z,9.90
2019-01-10T11:39:22.891Z,9.37
2019-01-10T11:46:19.436Z,9.10
2019-01-10T11:48:44.004Z,10.30
2019-01-10T11:51:13.653Z,9.70
2019-01-10T11:53:43.315Z,8.60
2019-01-10T11:56:13.057Z,10.87
2019-01-10T11:58:42.866Z,10.07
2019-01-10T12:01:12.297Z,11.67
2019-01-10T12:03:42.182Z,10.17
2019-01-10T12:06:11.880Z,9.63
2019-01-10T12:08:45.577Z,8.93
2019-01-10T12:11:50.933Z,9.30
2019-01-10T12:14:05.753Z,10.40
2019-01-10T12:16:35.254Z,10.70
2019-01-10T12:19:04.969Z,8.53
2019-01-10T12:21:35.651Z,9.70
2019-01-10T12:24:05.388Z,8.63
2019-01-10T12:26:35.517Z,9.40
2019-01-10T12:29:05.500Z,8.37
2019-01-10T12:31:35.239Z,9.07
2019-01-10T12:34:05.298Z,8.23
2019-01-10T12:36:35.481Z,9.80
2019-01-10T12:39:12.648Z,8.43
2019-01-10T12:41:42.802Z,9.20
2019-01-10T12:44:12.668Z,9.60
2019-01-10T12:46:42.122Z,9.40
2019-01-10T12:49:12.080Z,8.70
2019-01-10T12:51:41.980Z,7.97
2019-01-10T12:54:12.180Z,8.60
2019-01-10T12:56:41.730Z,7.90
2019-01-10T12:59:11.525Z,8.60
2019-01-10T13:01:40.909Z,8.00
2019-01-10T13:04:10.618Z,8.53
2019-01-10T13:06:39.842Z,9.03
2019-01-10T13:09:10.834Z,8.08
2019-01-10T13:11:40.899Z,7.57
2019-01-10T13:14:11.123Z,7.70
2019-01-10T13:16:46.633Z,8.67
2019-01-10T13:19:13.330Z,7.97
2019-01-10T13:21:43.539Z,7.77
2019-01-10T13:24:13.345Z,7.87
2019-01-10T13:26:42.918Z,8.30
2019-01-10T13:29:12.098Z,8.80
2019-01-10T13:31:41.727Z,9.07
2019-01-10T13:34:11.358Z,8.10
2019-01-10T13:36:41.273Z,9.90
2019-01-10T13:39:11.216Z,10.33
2019-01-10T13:41:41.254Z,10.30
2019-01-10T13:44:10.580Z,10.00
2019-01-10T13:46:40.448Z,9.23
2019-01-10T13:49:10.422Z,9.53
2019-01-10T13:51:40.148Z,9.73
2019-01-10T13:54:09.751Z,9.47
2019-01-10T13:56:39.754Z,8.90
2019-01-10T13:59:09.188Z,14.80
2019-01-10T14:01:39.020Z,19.30
2019-01-10T14:04:08.516Z,13.97
2019-01-10T14:06:37.925Z,11.70
2019-01-10T14:09:12.537Z,14.47
2019-01-10T14:11:42.397Z,11.70
2019-01-10T14:14:12.427Z,11.00
2019-01-10T14:16:42.251Z,11.10
2019-01-10T14:19:11.901Z,12.27
2019-01-10T14:21:46.570Z,8.93
2019-01-10T14:24:12.659Z,9.37
2019-01-10T14:26:42.929Z,8.70
2019-01-10T14:29:12.815Z,11.00
2019-01-10T14:31:43.071Z,11.70
2019-01-10T14:34:14.248Z,10.07
2019-01-10T14:36:44.789Z,9.77
2019-01-10T14:39:14.300Z,9.73
2019-01-10T14:41:44.255Z,8.80
2019-01-10T14:44:13.872Z,9.77
2019-01-10T14:46:43.560Z,9.50
2019-01-10T14:49:13.241Z,9.17
2019-01-10T14:51:42.894Z,8.80
2019-01-10T14:54:12.794Z,8.80
2019-01-10T14:56:42.893Z,9.27
2019-01-10T14:59:12.743Z,8.40
2019-01-10T15:01:42.370Z,9.30
2019-01-10T15:04:11.858Z,8.40
2019-01-10T15:06:41.482Z,7.53
2019-01-10T15:09:11.397Z,7.90
2019-01-10T15:11:41.069Z,8.00
2019-01-10T15:14:16.058Z,7.70
2019-01-10T15:16:41.746Z,7.70
2019-01-10T15:19:11.591Z,7.50
2019-01-10T15:21:41.437Z,8.20
2019-01-10T15:24:12.326Z,8.20
2019-01-10T15:26:42.041Z,7.70
2019-01-10T15:29:11.623Z,8.03
2019-01-10T15:31:41.652Z,8.47
2019-01-10T15:34:11.435Z,8.40
2019-01-10T15:36:44.747Z,7.42
2019-01-10T15:39:14.349Z,7.73
2019-01-10T15:41:44.061Z,12.77
2019-01-10T15:44:13.639Z,10.67
2019-01-10T15:46:42.933Z,10.00
2019-01-10T15:49:12.393Z,9.77
2019-01-10T15:51:42.117Z,8.40
2019-01-10T15:54:11.735Z,9.23
2019-01-10T15:56:41.375Z,11.10
2019-01-10T15:59:11.296Z,9.20
2019-01-10T16:01:40.735Z,9.27
2019-01-10T16:04:11.744Z,10.00
2019-01-10T16:06:41.746Z,7.63
2019-01-10T16:09:11.401Z,14.83
2019-01-10T16:11:41.698Z,8.03
2019-01-10T16:14:11.320Z,8.10
2019-01-10T16:16:41.715Z,7.00
2019-01-10T16:19:11.146Z,8.03
2019-01-10T16:21:41.286Z,12.83
2019-01-10T16:24:10.971Z,17.00
2019-01-10T16:26:40.709Z,14.83
2019-01-10T16:29:10.578Z,10.10
2019-01-10T16:31:40.188Z,13.40
2019-01-10T16:34:09.615Z,11.43
2019-01-10T16:36:41.901Z,6.97
2019-01-10T16:39:11.550Z,7.10
2019-01-10T16:41:41.453Z,7.23
2019-01-10T16:44:11.452Z,15.50
2019-01-10T16:46:41.679Z,7.03
2019-01-10T16:49:11.797Z,11.60
2019-01-10T16:51:41.892Z,11.60
2019-01-10T16:54:18.262Z,14.10
2019-01-10T16:56:47.913Z,16.73
2019-01-10T16:59:17.609Z,19.67
2019-01-10T17:01:47.773Z,19.57
2019-01-10T17:04:17.813Z,11.60
2019-01-10T17:06:47.484Z,10.87
2019-01-10T17:12:48.018Z,10.27
2019-01-10T17:15:17.913Z,8.70
2019-01-10T17:17:47.936Z,9.47
2019-01-10T17:20:19.444Z,12.27
2019-01-10T17:22:49.183Z,9.00
2019-01-10T17:25:19.317Z,8.33
2019-01-10T17:27:49.915Z,8.40
2019-01-10T17:30:27.110Z,8.87
2019-01-10T17:32:57.660Z,9.30
2019-01-10T17:35:29.898Z,7.77
2019-01-10T17:37:59.884Z,6.97
2019-01-10T17:40:29.714Z,8.53
2019-01-10T17:42:59.507Z,8.87
2019-01-10T17:45:33.966Z,7.93
2019-01-10T17:48:04.283Z,8.47
2019-01-10T17:50:33.734Z,8.37
2019-01-10T17:53:03.782Z,10.70
2019-01-10T17:55:33.381Z,8.00
2019-01-10T17:58:02.845Z,7.83
2019-01-10T18:00:32.683Z,8.10
2019-01-10T18:03:06.187Z,7.33
2019-01-10T18:05:35.978Z,7.80
2019-01-10T18:08:06.803Z,8.85
2019-01-10T18:26:27.984Z,9.58
2019-01-10T18:29:07.249Z,9.60
2019-01-10T18:31:41.986Z,11.30
2019-01-10T18:34:18.145Z,8.83
2019-01-10T18:37:08.514Z,8.80
2019-01-10T18:39:38.835Z,8.90
2019-01-10T18:42:12.609Z,11.50
2019-01-10T18:44:44.928Z,9.20
2019-01-10T18:50:17.906Z,9.87
2019-01-10T18:52:52.668Z,11.43
2019-01-10T18:55:30.851Z,12.83
2019-01-10T18:58:03.728Z,11.60
2019-01-10T19:00:35.096Z,10.53
2019-01-10T19:03:18.334Z,9.43
2019-01-10T19:06:01.802Z,10.90
2019-01-10T19:08:40.705Z,9.90
2019-01-10T19:11:19.287Z,9.10
2019-01-10T19:13:57.350Z,11.40
2019-01-10T19:16:29.483Z,10.27
2019-01-10T19:19:02.727Z,12.20
2019-01-10T19:24:41.137Z,11.60
2019-01-10T19:27:14.421Z,11.67
2019-01-10T19:30:11.555Z,10.57
2019-01-10T19:32:47.242Z,13.27
2019-01-10T19:35:19.929Z,12.37
2019-01-10T19:37:57.336Z,12.00
2019-01-10T19:40:39.489Z,11.70
2019-01-10T19:43:16.090Z,10.00
2019-01-10T19:45:49.751Z,11.77
2019-01-10T19:48:29.615Z,13.43
2019-01-10T19:51:01.608Z,11.47
2019-01-10T19:56:44.896Z,9.73
2019-01-10T19:59:56.251Z,10.37
2019-01-10T20:02:48.004Z,11.33
2019-01-10T20:05:28.955Z,9.87
2019-01-10T20:08:19.467Z,9.53
2019-01-10T20:11:03.346Z,10.20
2019-01-10T20:13:38.674Z,10.48
2019-01-10T20:16:15.962Z,10.57
2019-01-10T20:21:54.053Z,9.93
2019-01-10T20:24:59.086Z,9.87
2019-01-10T20:27:37.227Z,10.40
2019-01-10T20:30:48.584Z,10.43
2019-01-10T20:33:27.091Z,12.87
2019-01-10T20:35:56.519Z,11.20
2019-01-10T20:38:37.971Z,9.80
2019-01-10T20:41:08.457Z,12.27
2019-01-10T20:43:38.963Z,12.00
2019-01-10T20:46:12.368Z,11.17
2019-01-10T20:48:42.313Z,10.70
2019-01-10T20:51:12.681Z,11.27
2019-01-10T20:53:45.814Z,10.90
2019-01-10T20:56:16.685Z,9.60
2019-01-10T20:58:57.458Z,9.90
2019-01-10T21:01:30.536Z,10.00
2019-01-10T21:04:01.824Z,11.17
2019-01-10T21:06:32.185Z,10.28
2019-01-10T21:09:02.459Z,11.67
2019-01-10T21:11:40.719Z,12.97
2019-01-10T21:14:10.782Z,13.27
2019-01-10T21:16:51.528Z,10.40
2019-01-10T21:19:22.075Z,10.60
2019-01-10T21:21:54.453Z,9.80
2019-01-10T21:24:27.708Z,9.70
2019-01-10T21:26:58.390Z,10.50
2019-01-10T21:29:39.692Z,10.70
2019-01-10T21:32:15.423Z,11.80
2019-01-10T21:58:11.498Z,8.98
2019-01-10T22:00:42.140Z,7.60
2019-01-10T22:03:12.860Z,8.90
2019-01-10T22:05:44.047Z,8.17
2019-01-10T22:08:14.458Z,7.83
2019-01-10T22:10:44.094Z,8.00
2019-01-10T22:13:16.678Z,8.00
2019-01-10T22:15:46.957Z,7.90
2019-01-10T22:18:23.908Z,8.37
2019-01-10T22:20:57.793Z,7.78
2019-01-10T22:24:00.301Z,8.70
2019-01-10T22:26:08.246Z,9.37
2019-01-10T22:28:56.747Z,10.10
2019-01-10T22:31:33.046Z,10.10
2019-01-10T22:34:03.317Z,9.73
2019-01-10T22:40:44.497Z,8.95
2019-01-10T22:43:37.962Z,9.73
2019-01-10T22:47:00.932Z,9.10
2019-01-10T22:49:51.341Z,8.97
2019-01-10T22:52:50.896Z,8.00
2019-01-10T22:55:22.550Z,8.03
2019-01-10T22:58:09.793Z,7.80
2019-01-10T23:01:21.645Z,8.00
2019-01-10T23:04:11.128Z,8.20
2019-01-10T23:07:01.529Z,7.55
2019-01-10T23:09:42.169Z,7.00
2019-01-10T23:12:22.455Z,7.00
2019-01-10T23:15:25.369Z,7.30
2019-01-10T23:18:04.713Z,6.13
2019-01-10T23:23:30.081Z,6.90
2019-01-10T23:26:21.047Z,6.20
2019-01-10T23:29:33.302Z,7.05
2019-01-10T23:32:27.625Z,6.27
2019-01-10T23:35:07.848Z,5.50
2019-01-10T23:38:01.761Z,5.90
2019-01-10T23:40:47.774Z,5.67
2019-01-10T23:43:27.326Z,5.60
2019-01-10T23:46:10.721Z,5.60
2019-01-10T23:52:10.783Z,5.73
2019-01-10T23:54:42.952Z,6.20
